sensor_id;sensor_type;location;lat;lon;timestamp;P1;durP1;ratioP1;P2;durP2;ratioP2
6642;SDS011;3357;48.050;7.800;2024-02-26T00:00:59;0.60;;;0.60;;
6642;SDS011;3357;48.050;7.800;2024-02-26T00:03:25;0.40;;;0.40;;
6642;SDS011;3357;48.050;7.800;2024-02-26T00:05:50;0.50;;;0.50;;
6642;SDS011;3357;48.050;7.800;2024-02-26T00:08:15;1.43;;;0.40;;
6642;SDS011;3357;48.050;7.800;2024-02-26T00:10:40;0.40;;;0.40;;
6642;SDS011;3357;48.050;7.800;2024-02-26T00:13:06;1.13;;;0.40;;
6642;SDS011;3357;48.050;7.800;2024-02-26T00:15:31;0.33;;;0.33;;
6642;SDS011;3357;48.050;7.800;2024-02-26T00:17:56;0.50;;;0.50;;
6642;SDS011;3357;48.050;7.800;2024-02-26T00:20:21;0.30;;;0.30;;
6642;SDS011;3357;48.050;7.800;2024-02-26T00:22:47;0.40;;;0.40;;
6642;SDS011;3357;48.050;7.800;2024-02-26T00:25:12;1.43;;;0.67;;
6642;SDS011;3357;48.050;7.800;2024-02-26T00:27:37;0.73;;;0.40;;
6642;SDS011;3357;48.050;7.800;2024-02-26T00:30:04;0.57;;;0.30;;
6642;SDS011;3357;48.050;7.800;2024-02-26T00:32:30;0.53;;;0.50;;
6642;SDS011;3357;48.050;7.800;2024-02-26T00:34:55;0.33;;;0.33;;
6642;SDS011;3357;48.050;7.800;2024-02-26T00:37:22;0.50;;;0.50;;
6642;SDS011;3357;48.050;7.800;2024-02-26T00:39:47;0.77;;;0.43;;
6642;SDS011;3357;48.050;7.800;2024-02-26T00:42:12;3.80;;;0.50;;
6642;SDS011;3357;48.050;7.800;2024-02-26T00:44:37;0.70;;;0.50;;
6642;SDS011;3357;48.050;7.800;2024-02-26T00:47:03;0.90;;;0.40;;
6642;SDS011;3357;48.050;7.800;2024-02-26T00:49:28;0.63;;;0.43;;
6642;SDS011;3357;48.050;7.800;2024-02-26T00:51:53;0.40;;;0.40;;
6642;SDS011;3357;48.050;7.800;2024-02-26T00:54:19;0.50;;;0.50;;
6642;SDS011;3357;48.050;7.800;2024-02-26T00:56:44;0.70;;;0.50;;
6642;SDS011;3357;48.050;7.800;2024-02-26T00:59:09;0.50;;;0.50;;
6642;SDS011;3357;48.050;7.800;2024-02-26T01:01:34;0.47;;;0.40;;
6642;SDS011;3357;48.050;7.800;2024-02-26T01:04:00;3.83;;;0.40;;
6642;SDS011;3357;48.050;7.800;2024-02-26T01:06:25;0.60;;;0.40;;
6642;SDS011;3357;48.050;7.800;2024-02-26T01:08:50;0.30;;;0.30;;
6642;SDS011;3357;48.050;7.800;2024-02-26T01:11:16;0.40;;;0.40;;
6642;SDS011;3357;48.050;7.800;2024-02-26T01:13:41;0.50;;;0.50;;
6642;SDS011;3357;48.050;7.800;2024-02-26T01:16:06;0.60;;;0.60;;
6642;SDS011;3357;48.050;7.800;2024-02-26T01:18:31;1.07;;;0.70;;
6642;SDS011;3357;48.050;7.800;2024-02-26T01:20:57;0.57;;;0.57;;
6642;SDS011;3357;48.050;7.800;2024-02-26T01:23:22;0.60;;;0.60;;
6642;SDS011;3357;48.050;7.800;2024-02-26T01:25:47;0.70;;;0.70;;
6642;SDS011;3357;48.050;7.800;2024-02-26T01:28:13;0.77;;;0.70;;
6642;SDS011;3357;48.050;7.800;2024-02-26T01:30:39;1.10;;;1.00;;
6642;SDS011;3357;48.050;7.800;2024-02-26T01:33:04;1.23;;;1.13;;
6642;SDS011;3357;48.050;7.800;2024-02-26T01:35:29;0.87;;;0.87;;
6642;SDS011;3357;48.050;7.800;2024-02-26T01:37:55;1.60;;;0.80;;
6642;SDS011;3357;48.050;7.800;2024-02-26T01:40:20;1.13;;;0.90;;
6642;SDS011;3357;48.050;7.800;2024-02-26T01:42:46;4.70;;;1.37;;
6642;SDS011;3357;48.050;7.800;2024-02-26T01:45:12;1.33;;;0.80;;
6642;SDS011;3357;48.050;7.800;2024-02-26T01:47:41;4.93;;;0.90;;
6642;SDS011;3357;48.050;7.800;2024-02-26T01:50:06;1.00;;;0.90;;
6642;SDS011;3357;48.050;7.800;2024-02-26T01:52:32;1.47;;;1.37;;
6642;SDS011;3357;48.050;7.800;2024-02-26T01:54:57;1.00;;;1.00;;
6642;SDS011;3357;48.050;7.800;2024-02-26T01:57:23;2.20;;;1.07;;
6642;SDS011;3357;48.050;7.800;2024-02-26T01:59:48;1.43;;;1.00;;
6642;SDS011;3357;48.050;7.800;2024-02-26T02:02:13;2.70;;;1.00;;
6642;SDS011;3357;48.050;7.800;2024-02-26T02:04:40;1.80;;;0.90;;
6642;SDS011;3357;48.050;7.800;2024-02-26T02:07:06;1.93;;;0.90;;
6642;SDS011;3357;48.050;7.800;2024-02-26T02:09:31;2.00;;;0.90;;
6642;SDS011;3357;48.050;7.800;2024-02-26T02:11:57;1.33;;;0.90;;
6642;SDS011;3357;48.050;7.800;2024-02-26T02:14:23;1.20;;;1.10;;
6642;SDS011;3357;48.050;7.800;2024-02-26T02:16:49;1.47;;;1.00;;
6642;SDS011;3357;48.050;7.800;2024-02-26T02:19:15;3.17;;;1.30;;
6642;SDS011;3357;48.050;7.800;2024-02-26T02:21:40;4.20;;;1.00;;
6642;SDS011;3357;48.050;7.800;2024-02-26T02:24:05;1.00;;;0.90;;
6642;SDS011;3357;48.050;7.800;2024-02-26T02:26:30;0.93;;;0.80;;
6642;SDS011;3357;48.050;7.800;2024-02-26T02:28:56;0.97;;;0.87;;
6642;SDS011;3357;48.050;7.800;2024-02-26T02:31:21;0.80;;;0.80;;
6642;SDS011;3357;48.050;7.800;2024-02-26T02:33:47;1.63;;;0.90;;
6642;SDS011;3357;48.050;7.800;2024-02-26T02:36:12;0.90;;;0.90;;
6642;SDS011;3357;48.050;7.800;2024-02-26T02:38:38;1.53;;;0.90;;
6642;SDS011;3357;48.050;7.800;2024-02-26T02:41:03;1.47;;;0.77;;
6642;SDS011;3357;48.050;7.800;2024-02-26T02:43:29;0.80;;;0.80;;
6642;SDS011;3357;48.050;7.800;2024-02-26T02:45:54;1.27;;;1.17;;
6642;SDS011;3357;48.050;7.800;2024-02-26T02:48:20;1.10;;;1.00;;
6642;SDS011;3357;48.050;7.800;2024-02-26T02:50:45;3.97;;;0.60;;
6642;SDS011;3357;48.050;7.800;2024-02-26T02:53:10;3.60;;;0.40;;
6642;SDS011;3357;48.050;7.800;2024-02-26T02:55:36;0.40;;;0.40;;
6642;SDS011;3357;48.050;7.800;2024-02-26T02:58:01;0.40;;;0.40;;
6642;SDS011;3357;48.050;7.800;2024-02-26T03:00:26;1.23;;;0.60;;
6642;SDS011;3357;48.050;7.800;2024-02-26T03:02:52;0.40;;;0.40;;
6642;SDS011;3357;48.050;7.800;2024-02-26T03:05:18;0.40;;;0.40;;
6642;SDS011;3357;48.050;7.800;2024-02-26T03:07:43;0.50;;;0.40;;
6642;SDS011;3357;48.050;7.800;2024-02-26T03:10:08;0.70;;;0.70;;
6642;SDS011;3357;48.050;7.800;2024-02-26T03:12:34;0.60;;;0.50;;
6642;SDS011;3357;48.050;7.800;2024-02-26T03:14:59;0.93;;;0.50;;
6642;SDS011;3357;48.050;7.800;2024-02-26T03:17:27;0.40;;;0.40;;
6642;SDS011;3357;48.050;7.800;2024-02-26T03:19:53;4.67;;;0.50;;
6642;SDS011;3357;48.050;7.800;2024-02-26T03:22:19;0.40;;;0.40;;
6642;SDS011;3357;48.050;7.800;2024-02-26T03:24:45;0.40;;;0.40;;
6642;SDS011;3357;48.050;7.800;2024-02-26T03:27:10;0.40;;;0.40;;
6642;SDS011;3357;48.050;7.800;2024-02-26T03:29:36;0.50;;;0.50;;
6642;SDS011;3357;48.050;7.800;2024-02-26T03:32:02;0.50;;;0.50;;
6642;SDS011;3357;48.050;7.800;2024-02-26T03:34:27;0.93;;;0.40;;
6642;SDS011;3357;48.050;7.800;2024-02-26T03:36:53;0.53;;;0.53;;
6642;SDS011;3357;48.050;7.800;2024-02-26T03:39:18;0.50;;;0.50;;
6642;SDS011;3357;48.050;7.800;2024-02-26T03:41:43;0.70;;;0.60;;
6642;SDS011;3357;48.050;7.800;2024-02-26T03:44:09;0.73;;;0.60;;
6642;SDS011;3357;48.050;7.800;2024-02-26T03:46:34;0.67;;;0.57;;
6642;SDS011;3357;48.050;7.800;2024-02-26T03:49:00;1.17;;;0.40;;
6642;SDS011;3357;48.050;7.800;2024-02-26T03:51:25;0.40;;;0.40;;
6642;SDS011;3357;48.050;7.800;2024-02-26T03:53:51;0.40;;;0.40;;
6642;SDS011;3357;48.050;7.800;2024-02-26T03:56:16;0.70;;;0.60;;
6642;SDS011;3357;48.050;7.800;2024-02-26T03:58:42;0.90;;;0.80;;
6642;SDS011;3357;48.050;7.800;2024-02-26T04:01:07;0.40;;;0.40;;
6642;SDS011;3357;48.050;7.800;2024-02-26T04:03:33;0.80;;;0.40;;
6642;SDS011;3357;48.050;7.800;2024-02-26T04:05:59;0.47;;;0.47;;
6642;SDS011;3357;48.050;7.800;2024-02-26T04:08:24;0.83;;;0.50;;
6642;SDS011;3357;48.050;7.800;2024-02-26T04:10:50;0.43;;;0.43;;
6642;SDS011;3357;48.050;7.800;2024-02-26T04:13:15;1.93;;;0.60;;
6642;SDS011;3357;48.050;7.800;2024-02-26T04:15:40;0.50;;;0.50;;
6642;SDS011;3357;48.050;7.800;2024-02-26T04:18:06;0.50;;;0.50;;
6642;SDS011;3357;48.050;7.800;2024-02-26T04:20:31;0.50;;;0.50;;
6642;SDS011;3357;48.050;7.800;2024-02-26T04:22:56;0.50;;;0.50;;
6642;SDS011;3357;48.050;7.800;2024-02-26T04:25:21;2.77;;;0.40;;
6642;SDS011;3357;48.050;7.800;2024-02-26T04:27:47;0.70;;;0.70;;
6642;SDS011;3357;48.050;7.800;2024-02-26T04:30:12;0.83;;;0.60;;
6642;SDS011;3357;48.050;7.800;2024-02-26T04:32:37;0.60;;;0.60;;
6642;SDS011;3357;48.050;7.800;2024-02-26T04:35:02;0.67;;;0.67;;
6642;SDS011;3357;48.050;7.800;2024-02-26T04:37:28;0.77;;;0.60;;
6642;SDS011;3357;48.050;7.800;2024-02-26T04:39:59;2.00;;;0.40;;
6642;SDS011;3357;48.050;7.800;2024-02-26T04:42:25;0.50;;;0.50;;
6642;SDS011;3357;48.050;7.800;2024-02-26T04:44:50;0.50;;;0.50;;
6642;SDS011;3357;48.050;7.800;2024-02-26T04:47:16;0.60;;;0.60;;
6642;SDS011;3357;48.050;7.800;2024-02-26T04:49:41;0.60;;;0.60;;
6642;SDS011;3357;48.050;7.800;2024-02-26T04:52:06;1.57;;;1.17;;
6642;SDS011;3357;48.050;7.800;2024-02-26T04:54:31;2.40;;;1.17;;
6642;SDS011;3357;48.050;7.800;2024-02-26T04:56:57;1.50;;;1.40;;
6642;SDS011;3357;48.050;7.800;2024-02-26T04:59:22;3.93;;;1.43;;
6642;SDS011;3357;48.050;7.800;2024-02-26T05:01:47;2.00;;;1.50;;
6642;SDS011;3357;48.050;7.800;2024-02-26T05:04:13;4.50;;;1.70;;
6642;SDS011;3357;48.050;7.800;2024-02-26T05:06:38;3.80;;;2.27;;
6642;SDS011;3357;48.050;7.800;2024-02-26T05:09:03;1.40;;;1.30;;
6642;SDS011;3357;48.050;7.800;2024-02-26T05:11:28;5.50;;;1.20;;
6642;SDS011;3357;48.050;7.800;2024-02-26T05:13:54;2.33;;;1.27;;
6642;SDS011;3357;48.050;7.800;2024-02-26T05:16:19;9.60;;;3.13;;
6642;SDS011;3357;48.050;7.800;2024-02-26T05:18:46;4.83;;;3.47;;
6642;SDS011;3357;48.050;7.800;2024-02-26T05:21:12;2.70;;;2.20;;
6642;SDS011;3357;48.050;7.800;2024-02-26T05:23:37;0.80;;;0.77;;
6642;SDS011;3357;48.050;7.800;2024-02-26T05:26:02;0.60;;;0.60;;
6642;SDS011;3357;48.050;7.800;2024-02-26T05:28:28;0.70;;;0.70;;
6642;SDS011;3357;48.050;7.800;2024-02-26T05:30:53;1.80;;;0.80;;
6642;SDS011;3357;48.050;7.800;2024-02-26T05:33:19;1.70;;;0.80;;
6642;SDS011;3357;48.050;7.800;2024-02-26T05:35:44;1.03;;;1.00;;
6642;SDS011;3357;48.050;7.800;2024-02-26T05:38:09;1.13;;;1.07;;
6642;SDS011;3357;48.050;7.800;2024-02-26T05:40:35;0.77;;;0.77;;
6642;SDS011;3357;48.050;7.800;2024-02-26T05:43:00;0.90;;;0.77;;
6642;SDS011;3357;48.050;7.800;2024-02-26T05:45:26;0.80;;;0.80;;
6642;SDS011;3357;48.050;7.800;2024-02-26T05:47:51;0.80;;;0.80;;
6642;SDS011;3357;48.050;7.800;2024-02-26T05:50:16;1.03;;;0.80;;
6642;SDS011;3357;48.050;7.800;2024-02-26T05:52:42;0.87;;;0.57;;
6642;SDS011;3357;48.050;7.800;2024-02-26T05:55:07;0.70;;;0.70;;
6642;SDS011;3357;48.050;7.800;2024-02-26T05:57:33;0.70;;;0.70;;
6642;SDS011;3357;48.050;7.800;2024-02-26T05:59:59;0.70;;;0.70;;
6642;SDS011;3357;48.050;7.800;2024-02-26T06:02:30;0.50;;;0.50;;
6642;SDS011;3357;48.050;7.800;2024-02-26T06:04:56;1.40;;;0.60;;
6642;SDS011;3357;48.050;7.800;2024-02-26T06:07:22;1.53;;;0.60;;
6642;SDS011;3357;48.050;7.800;2024-02-26T06:09:47;0.70;;;0.70;;
6642;SDS011;3357;48.050;7.800;2024-02-26T06:12:13;0.60;;;0.60;;
6642;SDS011;3357;48.050;7.800;2024-02-26T06:14:38;0.50;;;0.50;;
6642;SDS011;3357;48.050;7.800;2024-02-26T06:17:04;0.60;;;0.60;;
6642;SDS011;3357;48.050;7.800;2024-02-26T06:19:29;0.50;;;0.50;;
6642;SDS011;3357;48.050;7.800;2024-02-26T06:21:54;0.50;;;0.50;;
6642;SDS011;3357;48.050;7.800;2024-02-26T06:24:19;2.00;;;0.53;;
6642;SDS011;3357;48.050;7.800;2024-02-26T06:26:47;1.10;;;0.73;;
6642;SDS011;3357;48.050;7.800;2024-02-26T06:29:12;0.93;;;0.80;;
6642;SDS011;3357;48.050;7.800;2024-02-26T06:31:38;0.80;;;0.80;;
6642;SDS011;3357;48.050;7.800;2024-02-26T06:34:03;0.63;;;0.63;;
6642;SDS011;3357;48.050;7.800;2024-02-26T06:36:28;1.00;;;1.00;;
6642;SDS011;3357;48.050;7.800;2024-02-26T06:38:53;2.33;;;2.20;;
6642;SDS011;3357;48.050;7.800;2024-02-26T06:41:19;3.20;;;3.00;;
6642;SDS011;3357;48.050;7.800;2024-02-26T06:43:44;2.90;;;1.20;;
6642;SDS011;3357;48.050;7.800;2024-02-26T06:46:09;1.10;;;1.00;;
6642;SDS011;3357;48.050;7.800;2024-02-26T06:48:35;0.80;;;0.80;;
6642;SDS011;3357;48.050;7.800;2024-02-26T06:51:01;1.10;;;1.00;;
6642;SDS011;3357;48.050;7.800;2024-02-26T06:53:27;1.27;;;1.17;;
6642;SDS011;3357;48.050;7.800;2024-02-26T06:55:52;2.20;;;1.23;;
6642;SDS011;3357;48.050;7.800;2024-02-26T06:58:17;1.53;;;1.10;;
6642;SDS011;3357;48.050;7.800;2024-02-26T07:00:43;1.40;;;1.30;;
6642;SDS011;3357;48.050;7.800;2024-02-26T07:03:08;1.30;;;1.20;;
6642;SDS011;3357;48.050;7.800;2024-02-26T07:05:33;1.10;;;0.97;;
6642;SDS011;3357;48.050;7.800;2024-02-26T07:07:58;1.77;;;1.10;;
6642;SDS011;3357;48.050;7.800;2024-02-26T07:10:24;1.63;;;1.13;;
6642;SDS011;3357;48.050;7.800;2024-02-26T07:12:49;1.47;;;1.10;;
6642;SDS011;3357;48.050;7.800;2024-02-26T07:15:14;1.10;;;1.00;;
6642;SDS011;3357;48.050;7.800;2024-02-26T07:17:40;2.93;;;1.20;;
6642;SDS011;3357;48.050;7.800;2024-02-26T07:20:07;0.80;;;0.80;;
6642;SDS011;3357;48.050;7.800;2024-02-26T07:22:33;1.70;;;1.10;;
6642;SDS011;3357;48.050;7.800;2024-02-26T07:24:59;2.30;;;1.00;;
6642;SDS011;3357;48.050;7.800;2024-02-26T07:27:24;1.17;;;1.00;;
6642;SDS011;3357;48.050;7.800;2024-02-26T07:29:49;1.83;;;1.30;;
6642;SDS011;3357;48.050;7.800;2024-02-26T07:32:14;1.90;;;1.00;;
6642;SDS011;3357;48.050;7.800;2024-02-26T07:34:40;2.80;;;0.97;;
6642;SDS011;3357;48.050;7.800;2024-02-26T07:37:09;2.43;;;1.00;;
6642;SDS011;3357;48.050;7.800;2024-02-26T07:39:35;3.13;;;0.90;;
6642;SDS011;3357;48.050;7.800;2024-02-26T07:42:01;1.00;;;0.90;;
6642;SDS011;3357;48.050;7.800;2024-02-26T07:44:27;1.23;;;1.00;;
6642;SDS011;3357;48.050;7.800;2024-02-26T07:46:52;0.93;;;0.80;;
6642;SDS011;3357;48.050;7.800;2024-02-26T07:49:17;0.67;;;0.67;;
6642;SDS011;3357;48.050;7.800;2024-02-26T07:51:43;0.80;;;0.80;;
6642;SDS011;3357;48.050;7.800;2024-02-26T07:54:08;0.60;;;0.60;;
6642;SDS011;3357;48.050;7.800;2024-02-26T07:56:34;0.80;;;0.80;;
6642;SDS011;3357;48.050;7.800;2024-02-26T07:58:59;0.73;;;0.70;;
6642;SDS011;3357;48.050;7.800;2024-02-26T08:01:24;1.80;;;0.87;;
6642;SDS011;3357;48.050;7.800;2024-02-26T08:03:51;1.20;;;1.10;;
6642;SDS011;3357;48.050;7.800;2024-02-26T08:06:17;2.20;;;1.60;;
6642;SDS011;3357;48.050;7.800;2024-02-26T08:08:42;3.83;;;1.40;;
6642;SDS011;3357;48.050;7.800;2024-02-26T08:11:09;2.50;;;2.40;;
6642;SDS011;3357;48.050;7.800;2024-02-26T08:13:34;2.73;;;2.00;;
6642;SDS011;3357;48.050;7.800;2024-02-26T08:15:59;4.00;;;3.17;;
6642;SDS011;3357;48.050;7.800;2024-02-26T08:18:24;6.37;;;4.03;;
6642;SDS011;3357;48.050;7.800;2024-02-26T08:20:50;4.70;;;2.80;;
6642;SDS011;3357;48.050;7.800;2024-02-26T08:23:15;3.30;;;2.40;;
6642;SDS011;3357;48.050;7.800;2024-02-26T08:25:40;1.83;;;1.57;;
6642;SDS011;3357;48.050;7.800;2024-02-26T08:28:05;1.30;;;1.20;;
6642;SDS011;3357;48.050;7.800;2024-02-26T08:30:31;1.60;;;1.50;;
6642;SDS011;3357;48.050;7.800;2024-02-26T08:32:56;1.00;;;1.00;;
6642;SDS011;3357;48.050;7.800;2024-02-26T08:35:21;2.07;;;1.60;;
6642;SDS011;3357;48.050;7.800;2024-02-26T08:37:47;1.13;;;1.03;;
6642;SDS011;3357;48.050;7.800;2024-02-26T08:40:12;1.30;;;1.30;;
6642;SDS011;3357;48.050;7.800;2024-02-26T08:42:38;1.43;;;1.33;;
6642;SDS011;3357;48.050;7.800;2024-02-26T08:45:03;2.60;;;1.40;;
6642;SDS011;3357;48.050;7.800;2024-02-26T08:47:29;3.90;;;1.30;;
6642;SDS011;3357;48.050;7.800;2024-02-26T08:49:54;1.70;;;1.50;;
6642;SDS011;3357;48.050;7.800;2024-02-26T08:52:19;5.47;;;1.50;;
6642;SDS011;3357;48.050;7.800;2024-02-26T08:54:46;1.53;;;1.40;;
6642;SDS011;3357;48.050;7.800;2024-02-26T08:57:12;1.60;;;1.30;;
6642;SDS011;3357;48.050;7.800;2024-02-26T08:59:37;1.70;;;1.23;;
6642;SDS011;3357;48.050;7.800;2024-02-26T09:02:02;3.20;;;1.17;;
6642;SDS011;3357;48.050;7.800;2024-02-26T09:04:28;1.23;;;1.13;;
6642;SDS011;3357;48.050;7.800;2024-02-26T09:06:53;1.77;;;1.30;;
6642;SDS011;3357;48.050;7.800;2024-02-26T09:09:19;0.90;;;0.80;;
6642;SDS011;3357;48.050;7.800;2024-02-26T09:11:44;1.13;;;0.90;;
6642;SDS011;3357;48.050;7.800;2024-02-26T09:14:10;0.80;;;0.80;;
6642;SDS011;3357;48.050;7.800;2024-02-26T09:16:35;0.90;;;0.90;;
6642;SDS011;3357;48.050;7.800;2024-02-26T09:19:01;1.00;;;1.00;;
6642;SDS011;3357;48.050;7.800;2024-02-26T09:21:27;1.50;;;1.40;;
6642;SDS011;3357;48.050;7.800;2024-02-26T09:23:53;2.33;;;2.17;;
6642;SDS011;3357;48.050;7.800;2024-02-26T09:26:18;1.63;;;1.40;;
6642;SDS011;3357;48.050;7.800;2024-02-26T09:28:44;1.70;;;1.60;;
6642;SDS011;3357;48.050;7.800;2024-02-26T09:31:09;1.70;;;1.30;;
6642;SDS011;3357;48.050;7.800;2024-02-26T09:33:35;1.80;;;1.70;;
6642;SDS011;3357;48.050;7.800;2024-02-26T09:36:00;1.93;;;1.73;;
6642;SDS011;3357;48.050;7.800;2024-02-26T09:38:26;1.40;;;1.30;;
6642;SDS011;3357;48.050;7.800;2024-02-26T09:40:52;1.60;;;1.50;;
6642;SDS011;3357;48.050;7.800;2024-02-26T09:43:20;2.50;;;1.40;;
6642;SDS011;3357;48.050;7.800;2024-02-26T09:45:47;1.70;;;1.60;;
6642;SDS011;3357;48.050;7.800;2024-02-26T09:48:12;1.47;;;1.37;;
6642;SDS011;3357;48.050;7.800;2024-02-26T09:50:40;3.27;;;1.70;;
6642;SDS011;3357;48.050;7.800;2024-02-26T09:53:06;1.70;;;1.60;;
6642;SDS011;3357;48.050;7.800;2024-02-26T09:55:35;1.37;;;1.30;;
6642;SDS011;3357;48.050;7.800;2024-02-26T09:58:00;1.80;;;1.70;;
6642;SDS011;3357;48.050;7.800;2024-02-26T10:00:26;2.10;;;1.53;;
6642;SDS011;3357;48.050;7.800;2024-02-26T10:02:55;2.13;;;1.70;;
6642;SDS011;3357;48.050;7.800;2024-02-26T10:05:21;3.83;;;1.70;;
6642;SDS011;3357;48.050;7.800;2024-02-26T10:07:47;1.50;;;1.40;;
6642;SDS011;3357;48.050;7.800;2024-02-26T10:10:17;1.50;;;1.40;;
6642;SDS011;3357;48.050;7.800;2024-02-26T10:12:42;3.50;;;1.67;;
6642;SDS011;3357;48.050;7.800;2024-02-26T10:15:08;2.70;;;1.80;;
6642;SDS011;3357;48.050;7.800;2024-02-26T10:17:33;1.87;;;1.67;;
6642;SDS011;3357;48.050;7.800;2024-02-26T10:20:12;1.93;;;1.80;;
6642;SDS011;3357;48.050;7.800;2024-02-26T10:22:41;1.80;;;1.67;;
6642;SDS011;3357;48.050;7.800;2024-02-26T10:25:07;1.50;;;1.40;;
6642;SDS011;3357;48.050;7.800;2024-02-26T10:27:33;3.90;;;3.57;;
6642;SDS011;3357;48.050;7.800;2024-02-26T10:30:01;2.40;;;2.00;;
6642;SDS011;3357;48.050;7.800;2024-02-26T10:32:27;1.57;;;1.30;;
6642;SDS011;3357;48.050;7.800;2024-02-26T10:34:56;1.43;;;1.27;;
6642;SDS011;3357;48.050;7.800;2024-02-26T10:37:22;1.50;;;1.40;;
6642;SDS011;3357;48.050;7.800;2024-02-26T10:39:47;2.13;;;1.33;;
6642;SDS011;3357;48.050;7.800;2024-02-26T10:42:13;3.30;;;1.77;;
6642;SDS011;3357;48.050;7.800;2024-02-26T10:44:40;2.93;;;1.87;;
6642;SDS011;3357;48.050;7.800;2024-02-26T10:47:07;1.50;;;1.40;;
6642;SDS011;3357;48.050;7.800;2024-02-26T10:49:32;4.13;;;1.60;;
6642;SDS011;3357;48.050;7.800;2024-02-26T10:52:00;1.60;;;1.50;;
6642;SDS011;3357;48.050;7.800;2024-02-26T10:54:26;3.63;;;1.57;;
6642;SDS011;3357;48.050;7.800;2024-02-26T10:56:56;1.60;;;1.50;;
6642;SDS011;3357;48.050;7.800;2024-02-26T10:59:22;2.53;;;1.43;;
6642;SDS011;3357;48.050;7.800;2024-02-26T11:01:48;4.13;;;2.93;;
6642;SDS011;3357;48.050;7.800;2024-02-26T11:04:14;1.73;;;1.10;;
6642;SDS011;3357;48.050;7.800;2024-02-26T11:06:40;2.40;;;2.20;;
6642;SDS011;3357;48.050;7.800;2024-02-26T11:09:06;2.50;;;1.97;;
6642;SDS011;3357;48.050;7.800;2024-02-26T11:11:31;2.73;;;1.60;;
6642;SDS011;3357;48.050;7.800;2024-02-26T11:13:59;1.63;;;1.50;;
6642;SDS011;3357;48.050;7.800;2024-02-26T11:16:26;1.43;;;1.33;;
6642;SDS011;3357;48.050;7.800;2024-02-26T11:18:52;1.27;;;1.03;;
6642;SDS011;3357;48.050;7.800;2024-02-26T11:21:20;0.90;;;0.90;;
6642;SDS011;3357;48.050;7.800;2024-02-26T11:24:03;1.80;;;1.30;;
6642;SDS011;3357;48.050;7.800;2024-02-26T11:26:29;1.30;;;1.20;;
6642;SDS011;3357;48.050;7.800;2024-02-26T11:28:54;1.90;;;1.20;;
6642;SDS011;3357;48.050;7.800;2024-02-26T11:31:19;2.20;;;1.17;;
6642;SDS011;3357;48.050;7.800;2024-02-26T11:33:51;0.90;;;0.90;;
6642;SDS011;3357;48.050;7.800;2024-02-26T11:36:17;1.07;;;1.07;;
6642;SDS011;3357;48.050;7.800;2024-02-26T11:38:43;1.77;;;1.07;;
6642;SDS011;3357;48.050;7.800;2024-02-26T11:41:09;1.40;;;1.00;;
6642;SDS011;3357;48.050;7.800;2024-02-26T11:43:53;3.57;;;1.10;;
6642;SDS011;3357;48.050;7.800;2024-02-26T11:48:56;1.27;;;1.10;;
6642;SDS011;3357;48.050;7.800;2024-02-26T11:51:27;1.77;;;1.30;;
6642;SDS011;3357;48.050;7.800;2024-02-26T11:53:53;1.53;;;1.10;;
6642;SDS011;3357;48.050;7.800;2024-02-26T11:59:10;2.43;;;1.13;;
6642;SDS011;3357;48.050;7.800;2024-02-26T12:04:01;2.63;;;1.83;;
6642;SDS011;3357;48.050;7.800;2024-02-26T12:06:27;1.50;;;1.40;;
6642;SDS011;3357;48.050;7.800;2024-02-26T12:08:53;1.53;;;1.20;;
6642;SDS011;3357;48.050;7.800;2024-02-26T12:11:19;1.27;;;1.17;;
6642;SDS011;3357;48.050;7.800;2024-02-26T12:13:46;1.10;;;1.10;;
6642;SDS011;3357;48.050;7.800;2024-02-26T12:16:21;1.10;;;1.10;;
6642;SDS011;3357;48.050;7.800;2024-02-26T12:19:00;0.90;;;0.90;;
6642;SDS011;3357;48.050;7.800;2024-02-26T12:21:25;1.10;;;1.00;;
6642;SDS011;3357;48.050;7.800;2024-02-26T12:23:50;1.60;;;1.00;;
6642;SDS011;3357;48.050;7.800;2024-02-26T12:26:16;1.80;;;1.27;;
6642;SDS011;3357;48.050;7.800;2024-02-26T12:28:41;0.90;;;0.90;;
6642;SDS011;3357;48.050;7.800;2024-02-26T12:31:06;0.93;;;0.90;;
6642;SDS011;3357;48.050;7.800;2024-02-26T12:33:32;1.27;;;0.70;;
6642;SDS011;3357;48.050;7.800;2024-02-26T12:35:57;0.80;;;0.80;;
6642;SDS011;3357;48.050;7.800;2024-02-26T12:38:23;0.80;;;0.80;;
6642;SDS011;3357;48.050;7.800;2024-02-26T12:40:49;1.00;;;1.00;;
6642;SDS011;3357;48.050;7.800;2024-02-26T12:43:14;0.80;;;0.80;;
6642;SDS011;3357;48.050;7.800;2024-02-26T12:45:40;1.00;;;0.70;;
6642;SDS011;3357;48.050;7.800;2024-02-26T12:48:06;1.10;;;0.70;;
6642;SDS011;3357;48.050;7.800;2024-02-26T12:50:32;0.80;;;0.80;;
6642;SDS011;3357;48.050;7.800;2024-02-26T12:52:57;1.70;;;0.90;;
6642;SDS011;3357;48.050;7.800;2024-02-26T12:55:23;0.90;;;0.90;;
6642;SDS011;3357;48.050;7.800;2024-02-26T12:57:48;0.77;;;0.77;;
6642;SDS011;3357;48.050;7.800;2024-02-26T13:00:15;0.60;;;0.60;;
6642;SDS011;3357;48.050;7.800;2024-02-26T13:02:42;1.23;;;0.73;;
6642;SDS011;3357;48.050;7.800;2024-02-26T13:05:10;1.90;;;1.00;;
6642;SDS011;3357;48.050;7.800;2024-02-26T13:07:46;0.70;;;0.70;;
6642;SDS011;3357;48.050;7.800;2024-02-26T13:10:15;0.97;;;0.70;;
6642;SDS011;3357;48.050;7.800;2024-02-26T13:12:46;0.93;;;0.60;;
6642;SDS011;3357;48.050;7.800;2024-02-26T13:15:18;0.60;;;0.60;;
6642;SDS011;3357;48.050;7.800;2024-02-26T13:17:44;0.60;;;0.60;;
6642;SDS011;3357;48.050;7.800;2024-02-26T13:20:10;0.67;;;0.67;;
6642;SDS011;3357;48.050;7.800;2024-02-26T13:22:36;0.70;;;0.70;;
6642;SDS011;3357;48.050;7.800;2024-02-26T13:25:02;0.60;;;0.60;;
6642;SDS011;3357;48.050;7.800;2024-02-26T13:27:28;2.00;;;0.87;;
6642;SDS011;3357;48.050;7.800;2024-02-26T13:30:03;1.47;;;0.83;;
6642;SDS011;3357;48.050;7.800;2024-02-26T13:32:34;1.20;;;1.00;;
6642;SDS011;3357;48.050;7.800;2024-02-26T13:35:10;0.93;;;0.70;;
6642;SDS011;3357;48.050;7.800;2024-02-26T13:37:37;0.60;;;0.60;;
6642;SDS011;3357;48.050;7.800;2024-02-26T13:40:07;0.60;;;0.60;;
6642;SDS011;3357;48.050;7.800;2024-02-26T13:42:34;0.97;;;0.93;;
6642;SDS011;3357;48.050;7.800;2024-02-26T13:44:59;0.67;;;0.67;;
6642;SDS011;3357;48.050;7.800;2024-02-26T13:47:25;0.80;;;0.80;;
6642;SDS011;3357;48.050;7.800;2024-02-26T13:49:50;0.70;;;0.70;;
6642;SDS011;3357;48.050;7.800;2024-02-26T13:52:15;0.80;;;0.80;;
6642;SDS011;3357;48.050;7.800;2024-02-26T13:54:40;0.50;;;0.50;;
6642;SDS011;3357;48.050;7.800;2024-02-26T13:57:06;0.77;;;0.77;;
6642;SDS011;3357;48.050;7.800;2024-02-26T13:59:31;0.70;;;0.70;;
6642;SDS011;3357;48.050;7.800;2024-02-26T14:01:56;1.00;;;0.80;;
6642;SDS011;3357;48.050;7.800;2024-02-26T14:04:22;0.70;;;0.70;;
6642;SDS011;3357;48.050;7.800;2024-02-26T14:06:47;0.70;;;0.70;;
6642;SDS011;3357;48.050;7.800;2024-02-26T14:09:12;0.90;;;0.90;;
6642;SDS011;3357;48.050;7.800;2024-02-26T14:11:43;1.00;;;0.90;;
6642;SDS011;3357;48.050;7.800;2024-02-26T14:14:09;2.30;;;0.80;;
6642;SDS011;3357;48.050;7.800;2024-02-26T14:16:34;2.70;;;1.07;;
6642;SDS011;3357;48.050;7.800;2024-02-26T14:18:59;0.90;;;0.90;;
6642;SDS011;3357;48.050;7.800;2024-02-26T14:21:25;1.10;;;1.00;;
6642;SDS011;3357;48.050;7.800;2024-02-26T14:23:50;0.80;;;0.80;;
6642;SDS011;3357;48.050;7.800;2024-02-26T14:26:15;0.80;;;0.80;;
6642;SDS011;3357;48.050;7.800;2024-02-26T14:28:41;1.53;;;1.07;;
6642;SDS011;3357;48.050;7.800;2024-02-26T14:31:06;1.80;;;1.50;;
6642;SDS011;3357;48.050;7.800;2024-02-26T14:33:36;2.30;;;1.20;;
6642;SDS011;3357;48.050;7.800;2024-02-26T14:36:02;1.33;;;1.10;;
6642;SDS011;3357;48.050;7.800;2024-02-26T14:38:28;1.80;;;0.90;;
6642;SDS011;3357;48.050;7.800;2024-02-26T14:40:53;1.73;;;1.33;;
6642;SDS011;3357;48.050;7.800;2024-02-26T14:43:18;0.97;;;0.90;;
6642;SDS011;3357;48.050;7.800;2024-02-26T14:45:43;2.00;;;1.23;;
6642;SDS011;3357;48.050;7.800;2024-02-26T14:48:09;1.73;;;1.20;;
6642;SDS011;3357;48.050;7.800;2024-02-26T14:50:35;0.90;;;0.90;;
6642;SDS011;3357;48.050;7.800;2024-02-26T14:53:00;0.83;;;0.83;;
6642;SDS011;3357;48.050;7.800;2024-02-26T14:55:27;1.10;;;1.00;;
6642;SDS011;3357;48.050;7.800;2024-02-26T14:57:52;2.97;;;0.90;;
6642;SDS011;3357;48.050;7.800;2024-02-26T15:00:17;0.90;;;0.90;;
6642;SDS011;3357;48.050;7.800;2024-02-26T15:02:43;1.20;;;1.10;;
6642;SDS011;3357;48.050;7.800;2024-02-26T15:05:08;1.03;;;1.00;;
6642;SDS011;3357;48.050;7.800;2024-02-26T15:07:36;1.40;;;1.30;;
6642;SDS011;3357;48.050;7.800;2024-02-26T15:10:04;1.70;;;1.60;;
6642;SDS011;3357;48.050;7.800;2024-02-26T15:12:31;1.50;;;1.40;;
6642;SDS011;3357;48.050;7.800;2024-02-26T15:14:56;1.90;;;1.40;;